Time;durP1;ratioP1;P1;durP2;ratioP2;P2;SDS_P1;SDS_P2;PMS_P1;PMS_P2;Temp;Humidity;BMP_temperature;BMP_pressure;BME280_temperature;BME280_humidity;BME280_pressure;Samples;Min_cycle;Max_cycle;Signal;HPM_P1;HPM_P2
2023/08/22 00:00:44;;;;;;;21.10;19.77;;;;;;;;;;5099863;28;20544;-85
2023/08/22 00:03:11;;;;;;;20.60;19.23;;;;;;;;;;5100105;28;20479;-84
2023/08/22 00:05:38;;;;;;;21.10;19.50;;;;;;;;;;5100838;28;20441;-84
2023/08/22 00:08:06;;;;;;;20.70;19.40;;;;;;;;;;5099328;28;20457;-85
2023/08/22 00:10:33;;;;;;;21.07;19.60;;;;;;;;;;5099647;28;20457;-83
2023/08/22 00:13:00;;;;;;;20.93;19.60;;;;;;;;;;5100145;28;20464;-84
2023/08/22 00:15:29;;;;;;;21.17;19.87;;;;;;;;;;5100372;28;20507;-84
2023/08/22 00:17:56;;;;;;;20.40;19.27;;;;;;;;;;5100200;28;20441;-83
2023/08/22 00:20:23;;;;;;;21.53;19.80;;;;;;;;;;5099302;28;20419;-84
2023/08/22 00:22:50;;;;;;;20.90;19.60;;;;;;;;;;5099672;28;20476;-83
2023/08/22 00:25:17;;;;;;;20.20;19.10;;;;;;;;;;5100259;28;20441;-84
2023/08/22 00:27:44;;;;;;;20.93;19.73;;;;;;;;;;5099972;28;20412;-82
2023/08/22 00:30:12;;;;;;;20.77;19.60;;;;;;;;;;5099814;28;20423;-83
2023/08/22 00:32:40;;;;;;;20.23;19.13;;;;;;;;;;5099270;28;20534;-85
2023/08/22 00:35:07;;;;;;;21.60;20.17;;;;;;;;;;5099262;28;20506;-84
2023/08/22 00:37:35;;;;;;;20.93;19.80;;;;;;;;;;5099914;28;20821;-83
2023/08/22 00:40:03;;;;;;;20.87;19.67;;;;;;;;;;5099446;28;20419;-84
2023/08/22 00:42:30;;;;;;;21.10;19.77;;;;;;;;;;5099701;28;20460;-83
2023/08/22 00:44:58;;;;;;;20.20;19.00;;;;;;;;;;5100343;28;20439;-84
2023/08/22 00:47:25;;;;;;;20.87;19.60;;;;;;;;;;5100644;28;20440;-83
2023/08/22 00:49:54;;;;;;;20.60;19.40;;;;;;;;;;5099440;28;20459;-84
2023/08/22 00:52:21;;;;;;;20.10;19.00;;;;;;;;;;5099199;28;20468;-83
2023/08/22 00:54:49;;;;;;;21.03;19.53;;;;;;;;;;5100408;28;20449;-84
2023/08/22 00:57:16;;;;;;;21.23;20.03;;;;;;;;;;5100074;28;20958;-83
2023/08/22 00:59:44;;;;;;;21.80;20.40;;;;;;;;;;5099647;28;20456;-85
2023/08/22 01:02:11;;;;;;;20.93;19.73;;;;;;;;;;5100382;28;20465;-84
2023/08/22 01:04:38;;;;;;;20.80;19.23;;;;;;;;;;5100050;28;21153;-84
2023/08/22 01:07:11;;;;;;;21.10;19.90;;;;;;;;;;5100070;28;20764;-84
2023/08/22 01:09:41;;;;;;;20.87;19.67;;;;;;;;;;5099135;28;20458;-85
2023/08/22 01:12:12;;;;;;;20.97;19.73;;;;;;;;;;5099588;28;20469;-84
2023/08/22 01:14:41;;;;;;;20.77;19.37;;;;;;;;;;5099285;28;20436;-83
2023/08/22 01:17:09;;;;;;;20.80;19.50;;;;;;;;;;5100408;28;20511;-83
2023/08/22 01:19:36;;;;;;;21.07;19.80;;;;;;;;;;5098645;28;20441;-85
2023/08/22 01:22:04;;;;;;;20.33;19.10;;;;;;;;;;5098579;28;20987;-84
2023/08/22 01:24:31;;;;;;;22.03;20.13;;;;;;;;;;5099285;28;20787;-83
2023/08/22 01:26:58;;;;;;;20.40;19.20;;;;;;;;;;5101563;28;20429;-83
2023/08/22 01:29:28;;;;;;;20.43;19.43;;;;;;;;;;5092729;28;20477;-84
2023/08/22 01:32:00;;;;;;;21.00;19.90;;;;;;;;;;5081205;28;20446;-84
2023/08/22 01:34:30;;;;;;;20.53;19.43;;;;;;;;;;5082556;28;20413;-85
2023/08/22 01:36:59;;;;;;;20.63;19.43;;;;;;;;;;5100343;28;20466;-84
2023/08/22 01:39:28;;;;;;;21.70;20.30;;;;;;;;;;5103716;28;20441;-85
2023/08/22 01:41:56;;;;;;;20.60;19.50;;;;;;;;;;5102188;28;20522;-83
2023/08/22 01:44:23;;;;;;;20.90;19.63;;;;;;;;;;5091847;28;20540;-83
2023/08/22 01:46:50;;;;;;;21.30;20.10;;;;;;;;;;5083095;28;20481;-85
2023/08/22 01:49:18;;;;;;;21.73;20.33;;;;;;;;;;5082621;28;20428;-83
2023/08/22 01:51:45;;;;;;;21.23;19.93;;;;;;;;;;5081657;28;20941;-85
2023/08/22 01:54:17;;;;;;;22.63;20.70;;;;;;;;;;5083185;28;20457;-83
2023/08/22 01:56:45;;;;;;;21.13;19.77;;;;;;;;;;5082576;28;20538;-83
2023/08/22 01:59:13;;;;;;;21.33;19.97;;;;;;;;;;5083088;28;20452;-84
2023/08/22 02:01:40;;;;;;;21.30;19.80;;;;;;;;;;5081542;28;20424;-84
2023/08/22 02:04:07;;;;;;;21.17;19.87;;;;;;;;;;5082303;28;20442;-83
2023/08/22 02:06:34;;;;;;;20.97;19.70;;;;;;;;;;5082544;28;20452;-83
2023/08/22 02:09:01;;;;;;;21.77;20.47;;;;;;;;;;5082930;28;20507;-84
2023/08/22 02:11:28;;;;;;;21.93;20.63;;;;;;;;;;5082263;28;20453;-84
2023/08/22 02:13:56;;;;;;;21.20;19.83;;;;;;;;;;5082383;28;20477;-84
2023/08/22 02:16:24;;;;;;;21.23;19.93;;;;;;;;;;5082124;28;20485;-83
2023/08/22 02:18:52;;;;;;;21.40;19.90;;;;;;;;;;5081752;28;20462;-84
2023/08/22 02:21:19;;;;;;;21.53;20.20;;;;;;;;;;5082147;28;20521;-84
2023/08/22 02:23:46;;;;;;;21.90;20.70;;;;;;;;;;5082359;28;20461;-85
2023/08/22 02:26:13;;;;;;;22.37;20.00;;;;;;;;;;5081777;28;20508;-83
2023/08/22 02:28:40;;;;;;;21.17;19.87;;;;;;;;;;5081448;28;20424;-85
2023/08/22 02:31:08;;;;;;;21.90;20.50;;;;;;;;;;5081577;28;20429;-84
2023/08/22 02:33:36;;;;;;;21.30;20.00;;;;;;;;;;5081797;28;20462;-85
2023/08/22 02:36:03;;;;;;;22.27;20.70;;;;;;;;;;5081925;28;20974;-84
2023/08/22 02:38:30;;;;;;;21.70;20.40;;;;;;;;;;5081935;28;20453;-83
2023/08/22 02:40:57;;;;;;;21.40;20.03;;;;;;;;;;5081394;28;20434;-84
2023/08/22 02:43:24;;;;;;;21.17;19.97;;;;;;;;;;5082044;28;20440;-84
2023/08/22 02:45:51;;;;;;;22.57;20.87;;;;;;;;;;5081651;28;20949;-83
2023/08/22 02:48:19;;;;;;;20.60;19.30;;;;;;;;;;5081348;28;20420;-84
2023/08/22 02:50:50;;;;;;;21.77;20.57;;;;;;;;;;5080731;28;20448;-84
2023/08/22 02:53:17;;;;;;;21.23;19.83;;;;;;;;;;5083186;28;20513;-85
2023/08/22 02:55:47;;;;;;;21.37;20.10;;;;;;;;;;5099041;28;20427;-84
2023/08/22 02:58:15;;;;;;;22.77;21.07;;;;;;;;;;5101524;28;20443;-83
2023/08/22 03:00:42;;;;;;;21.80;20.50;;;;;;;;;;5101280;28;20427;-83
2023/08/22 03:03:09;;;;;;;22.30;20.70;;;;;;;;;;5101307;28;20435;-83
2023/08/22 03:05:37;;;;;;;22.40;20.80;;;;;;;;;;5101728;28;20445;-83
2023/08/22 03:08:04;;;;;;;21.37;20.10;;;;;;;;;;5101503;28;20436;-83
2023/08/22 03:10:31;;;;;;;20.30;19.30;;;;;;;;;;5101015;28;20423;-83
2023/08/22 03:12:58;;;;;;;21.23;19.60;;;;;;;;;;5101213;28;21000;-89
2023/08/22 03:15:25;;;;;;;21.20;19.93;;;;;;;;;;5090571;28;20421;-84
2023/08/22 03:17:52;;;;;;;21.30;19.63;;;;;;;;;;5079845;28;20460;-83
2023/08/22 03:20:19;;;;;;;20.97;19.50;;;;;;;;;;5079826;28;20801;-84
2023/08/22 03:22:48;;;;;;;21.10;19.90;;;;;;;;;;5080908;28;20470;-84
2023/08/22 03:25:15;;;;;;;20.53;19.13;;;;;;;;;;5080449;28;20453;-85
2023/08/22 03:27:42;;;;;;;20.60;19.40;;;;;;;;;;5080626;28;20907;-84
2023/08/22 03:30:10;;;;;;;20.33;19.23;;;;;;;;;;5080562;28;20439;-84
2023/08/22 03:32:37;;;;;;;21.83;20.17;;;;;;;;;;5080663;28;20474;-82
2023/08/22 03:35:04;;;;;;;21.27;19.67;;;;;;;;;;5080505;28;20445;-84
2023/08/22 03:37:31;;;;;;;20.77;19.57;;;;;;;;;;5080429;28;20513;-83
2023/08/22 03:40:00;;;;;;;21.13;19.70;;;;;;;;;;5079940;28;20461;-84
2023/08/22 03:42:27;;;;;;;20.87;19.47;;;;;;;;;;5081995;28;20466;-84
2023/08/22 03:44:54;;;;;;;22.00;20.03;;;;;;;;;;5100520;28;20504;-85
2023/08/22 03:47:21;;;;;;;21.03;19.93;;;;;;;;;;5089973;28;20424;-84
2023/08/22 03:49:48;;;;;;;20.63;19.37;;;;;;;;;;5079876;28;20439;-83
2023/08/22 03:52:15;;;;;;;21.17;19.67;;;;;;;;;;5079284;28;20469;-84
2023/08/22 03:54:42;;;;;;;20.97;19.70;;;;;;;;;;5079969;28;20492;-83
2023/08/22 03:57:11;;;;;;;21.13;19.83;;;;;;;;;;5080205;28;20467;-82
2023/08/22 03:59:38;;;;;;;21.03;19.90;;;;;;;;;;5079870;28;20454;-85
2023/08/22 04:02:05;;;;;;;20.37;19.27;;;;;;;;;;5080041;28;21077;-83
2023/08/22 04:04:32;;;;;;;21.97;20.53;;;;;;;;;;5079876;28;20453;-83
2023/08/22 04:06:59;;;;;;;21.30;20.00;;;;;;;;;;5079911;28;20481;-84
2023/08/22 04:09:26;;;;;;;20.33;19.00;;;;;;;;;;5079735;28;20446;-84
2023/08/22 04:11:55;;;;;;;20.33;19.10;;;;;;;;;;5079970;28;20533;-83
2023/08/22 04:14:23;;;;;;;21.43;20.07;;;;;;;;;;5080396;28;20437;-83
2023/08/22 04:16:50;;;;;;;21.27;19.90;;;;;;;;;;5079501;28;20481;-84
2023/08/22 04:19:17;;;;;;;21.80;20.23;;;;;;;;;;5079804;28;20499;-84
2023/08/22 04:21:44;;;;;;;20.53;19.27;;;;;;;;;;5079060;28;20434;-84
2023/08/22 04:24:12;;;;;;;20.43;19.03;;;;;;;;;;5079745;28;20424;-84
2023/08/22 04:26:39;;;;;;;20.33;19.13;;;;;;;;;;5094837;28;20453;-84
2023/08/22 04:29:06;;;;;;;21.67;20.37;;;;;;;;;;5099549;28;20433;-84
2023/08/22 04:31:35;;;;;;;20.70;19.50;;;;;;;;;;5099205;28;20953;-84
2023/08/22 04:34:02;;;;;;;21.13;19.70;;;;;;;;;;5100203;28;20471;-83
2023/08/22 04:36:29;;;;;;;21.70;20.20;;;;;;;;;;5099712;28;20828;-82
2023/08/22 04:38:56;;;;;;;21.70;20.20;;;;;;;;;;5100957;28;20561;-86
2023/08/22 04:41:24;;;;;;;20.97;19.87;;;;;;;;;;5102194;28;20464;-86
2023/08/22 04:43:51;;;;;;;21.43;19.90;;;;;;;;;;5102435;28;20543;-85
2023/08/22 04:46:18;;;;;;;21.53;20.20;;;;;;;;;;5102367;28;20455;-85
2023/08/22 04:48:47;;;;;;;20.57;19.13;;;;;;;;;;5088260;28;20450;-85
2023/08/22 04:51:14;;;;;;;21.87;20.20;;;;;;;;;;5080986;28;20832;-85
2023/08/22 04:53:41;;;;;;;20.93;19.70;;;;;;;;;;5082181;28;20508;-86
2023/08/22 04:56:08;;;;;;;20.97;19.67;;;;;;;;;;5084322;28;20450;-85
2023/08/22 04:58:35;;;;;;;20.50;19.30;;;;;;;;;;5086023;28;20499;-85
2023/08/22 05:01:02;;;;;;;21.23;19.93;;;;;;;;;;5085140;28;20461;-86
2023/08/22 05:03:30;;;;;;;21.50;19.80;;;;;;;;;;5085959;28;20452;-86
2023/08/22 05:05:58;;;;;;;21.63;20.00;;;;;;;;;;5086413;28;20465;-85
2023/08/22 05:08:25;;;;;;;20.90;19.53;;;;;;;;;;5086663;28;20430;-85
2023/08/22 05:10:52;;;;;;;21.27;19.93;;;;;;;;;;5086184;28;20961;-84
2023/08/22 05:13:19;;;;;;;20.90;19.70;;;;;;;;;;5086905;28;20469;-85
2023/08/22 05:15:46;;;;;;;21.40;19.97;;;;;;;;;;5087003;28;20462;-85
2023/08/22 05:18:13;;;;;;;21.53;20.17;;;;;;;;;;5085969;28;20511;-85
2023/08/22 05:20:41;;;;;;;22.73;21.17;;;;;;;;;;5085197;28;20453;-86
2023/08/22 05:23:09;;;;;;;21.00;19.70;;;;;;;;;;5086253;28;20463;-85
2023/08/22 05:25:37;;;;;;;22.00;20.33;;;;;;;;;;5086498;28;20493;-85
2023/08/22 05:28:04;;;;;;;22.00;20.47;;;;;;;;;;5086090;28;20442;-85
2023/08/22 05:30:31;;;;;;;21.83;20.50;;;;;;;;;;5085865;28;20456;-85
2023/08/22 05:32:58;;;;;;;20.90;19.63;;;;;;;;;;5085785;28;20462;-85
2023/08/22 05:35:25;;;;;;;21.43;20.20;;;;;;;;;;5086533;28;20430;-87
2023/08/22 05:37:52;;;;;;;21.30;19.77;;;;;;;;;;5085267;28;20481;-86
2023/08/22 05:40:20;;;;;;;21.37;19.87;;;;;;;;;;5085076;28;20457;-85
2023/08/22 05:42:48;;;;;;;21.67;19.80;;;;;;;;;;5086118;28;20447;-86
2023/08/22 05:45:15;;;;;;;21.67;20.20;;;;;;;;;;5085745;28;20448;-85
2023/08/22 05:47:42;;;;;;;22.40;20.70;;;;;;;;;;5085738;28;20446;-85
2023/08/22 05:50:09;;;;;;;23.23;21.50;;;;;;;;;;5085621;28;20457;-86
2023/08/22 05:52:36;;;;;;;22.60;20.83;;;;;;;;;;5085483;28;20875;-85
2023/08/22 05:55:04;;;;;;;22.13;20.63;;;;;;;;;;5093135;28;20507;-85
2023/08/22 05:57:33;;;;;;;22.40;21.10;;;;;;;;;;5083561;28;20489;-86
2023/08/22 06:00:00;;;;;;;22.77;21.07;;;;;;;;;;5089582;28;20429;-86
2023/08/22 06:02:27;;;;;;;21.90;20.57;;;;;;;;;;5086144;28;20456;-86
2023/08/22 06:04:54;;;;;;;23.23;21.63;;;;;;;;;;5082969;28;20443;-85
2023/08/22 06:07:21;;;;;;;23.10;21.47;;;;;;;;;;5081949;28;20450;-85
2023/08/22 06:09:48;;;;;;;23.57;22.00;;;;;;;;;;5086329;28;20926;-87
2023/08/22 06:12:16;;;;;;;21.33;20.10;;;;;;;;;;5099777;28;20443;-89
2023/08/22 06:14:45;;;;;;;24.23;22.23;;;;;;;;;;5100490;28;20480;-87
2023/08/22 06:17:12;;;;;;;23.07;21.60;;;;;;;;;;5115504;28;20479;-86
2023/08/22 06:19:39;;;;;;;22.70;21.30;;;;;;;;;;5124851;28;20436;-85
2023/08/22 06:22:06;;;;;;;25.50;23.80;;;;;;;;;;5123776;28;20460;-85
2023/08/22 06:24:33;;;;;;;24.03;22.30;;;;;;;;;;5124094;28;20423;-85
2023/08/22 06:27:00;;;;;;;23.30;21.87;;;;;;;;;;5123678;28;20448;-85
2023/08/22 06:29:27;;;;;;;25.20;23.47;;;;;;;;;;5124398;28;20455;-86
2023/08/22 06:31:56;;;;;;;25.60;23.70;;;;;;;;;;5122709;28;20523;-83
2023/08/22 06:34:23;;;;;;;24.47;22.67;;;;;;;;;;5123755;28;20422;-86
2023/08/22 06:36:50;;;;;;;24.33;22.53;;;;;;;;;;5122421;28;20451;-86
2023/08/22 06:39:17;;;;;;;24.57;22.90;;;;;;;;;;5122613;28;20487;-86
2023/08/22 06:41:44;;;;;;;23.57;22.00;;;;;;;;;;5122843;28;20444;-86
2023/08/22 06:44:12;;;;;;;25.03;23.33;;;;;;;;;;5122783;28;20444;-86
2023/08/22 06:46:39;;;;;;;25.20;23.40;;;;;;;;;;5122722;28;20507;-86
2023/08/22 06:49:07;;;;;;;25.10;23.60;;;;;;;;;;5123083;28;20415;-86
2023/08/22 06:51:35;;;;;;;24.30;22.70;;;;;;;;;;5122338;28;20425;-87
2023/08/22 06:54:02;;;;;;;24.27;22.67;;;;;;;;;;5122195;28;20459;-87
2023/08/22 06:56:29;;;;;;;25.73;23.50;;;;;;;;;;5122052;28;20432;-87
2023/08/22 06:58:56;;;;;;;25.53;23.73;;;;;;;;;;5121944;28;20480;-86
2023/08/22 07:01:23;;;;;;;25.63;23.93;;;;;;;;;;5121082;28;20477;-87
2023/08/22 07:03:50;;;;;;;26.17;24.47;;;;;;;;;;5121977;28;20449;-86
2023/08/22 07:06:19;;;;;;;27.37;25.57;;;;;;;;;;5122570;28;20457;-86
2023/08/22 07:08:46;;;;;;;28.80;26.90;;;;;;;;;;5122432;28;20455;-86
2023/08/22 07:11:13;;;;;;;28.30;26.10;;;;;;;;;;5120862;28;20426;-86
2023/08/22 07:13:39;;;;;;;29.40;27.40;;;;;;;;;;5122093;28;20475;-86
2023/08/22 07:16:06;;;;;;;28.13;26.13;;;;;;;;;;5122026;28;20448;-86
2023/08/22 07:18:33;;;;;;;27.83;25.60;;;;;;;;;;5120899;27;20475;-86
2023/08/22 07:21:04;;;;;;;28.37;26.20;;;;;;;;;;5122460;28;20454;-86
2023/08/22 07:23:34;;;;;;;27.27;25.53;;;;;;;;;;5121299;28;20507;-86
2023/08/22 07:26:01;;;;;;;25.30;23.50;;;;;;;;;;5120886;28;20444;-87
2023/08/22 07:28:29;;;;;;;26.17;24.10;;;;;;;;;;5120415;28;20436;-85
2023/08/22 07:30:56;;;;;;;26.13;24.27;;;;;;;;;;5122505;28;20419;-87
2023/08/22 07:33:23;;;;;;;26.13;23.93;;;;;;;;;;5121628;27;21080;-86
2023/08/22 07:35:50;;;;;;;26.90;24.67;;;;;;;;;;5121277;28;20447;-86
2023/08/22 07:38:17;;;;;;;24.83;22.87;;;;;;;;;;5122836;28;20458;-87
2023/08/22 07:40:45;;;;;;;23.90;22.30;;;;;;;;;;5122868;28;20436;-86
2023/08/22 07:43:12;;;;;;;27.17;24.73;;;;;;;;;;5125974;28;20468;-86
2023/08/22 07:45:39;;;;;;;24.30;22.60;;;;;;;;;;5125369;28;20419;-86
2023/08/22 07:48:07;;;;;;;24.10;22.20;;;;;;;;;;5125174;28;20796;-86
2023/08/22 07:50:34;;;;;;;24.27;22.60;;;;;;;;;;5103862;28;20472;-86
2023/08/22 07:53:04;;;;;;;24.73;22.80;;;;;;;;;;5095335;28;20439;-80
2023/08/22 07:55:31;;;;;;;23.37;21.73;;;;;;;;;;5092415;28;20453;-81
2023/08/22 07:57:59;;;;;;;23.90;21.60;;;;;;;;;;5092920;28;20460;-79
2023/08/22 08:00:26;;;;;;;24.60;22.90;;;;;;;;;;5092665;28;20464;-80
2023/08/22 08:02:53;;;;;;;23.87;22.03;;;;;;;;;;5092899;28;20451;-81
2023/08/22 08:05:21;;;;;;;27.13;21.67;;;;;;;;;;5095946;28;20921;-85
2023/08/22 08:07:49;;;;;;;23.80;22.10;;;;;;;;;;5097398;28;20442;-83
2023/08/22 08:10:16;;;;;;;23.20;21.70;;;;;;;;;;5096119;28;20492;-86
2023/08/22 08:12:43;;;;;;;23.97;21.80;;;;;;;;;;5079576;28;20505;-85
2023/08/22 08:15:11;;;;;;;23.70;22.10;;;;;;;;;;5078678;28;20424;-85
2023/08/22 08:17:39;;;;;;;22.07;20.57;;;;;;;;;;5078020;28;20458;-85
2023/08/22 08:20:07;;;;;;;22.37;20.63;;;;;;;;;;5078454;27;20553;-85
2023/08/22 08:22:34;;;;;;;23.27;21.40;;;;;;;;;;5095852;28;20446;-84
2023/08/22 08:25:02;;;;;;;22.70;21.00;;;;;;;;;;5098379;28;20443;-86
2023/08/22 08:27:29;;;;;;;23.50;21.30;;;;;;;;;;5116099;28;20807;-88
2023/08/22 08:29:56;;;;;;;25.07;22.97;;;;;;;;;;5100409;28;20442;-80
2023/08/22 08:32:25;;;;;;;23.97;22.07;;;;;;;;;;5094752;28;20492;-80
2023/08/22 08:34:52;;;;;;;22.90;21.20;;;;;;;;;;5095278;28;20441;-90
2023/08/22 08:37:21;;;;;;;23.97;22.03;;;;;;;;;;5089185;28;20452;-88
2023/08/22 08:39:48;;;;;;;24.00;22.30;;;;;;;;;;5102685;28;20838;-87
2023/08/22 08:42:16;;;;;;;22.50;21.00;;;;;;;;;;5099647;28;20480;-88
2023/08/22 08:44:43;;;;;;;23.57;21.83;;;;;;;;;;5099536;28;20459;-89
2023/08/22 08:47:11;;;;;;;23.30;21.80;;;;;;;;;;5101237;28;20423;-88
2023/08/22 08:49:39;;;;;;;24.63;22.83;;;;;;;;;;5099182;28;20875;-88
2023/08/22 08:52:08;;;;;;;24.93;23.00;;;;;;;;;;5098945;28;20435;-88
2023/08/22 08:54:35;;;;;;;23.53;22.03;;;;;;;;;;5091739;28;20486;-84
2023/08/22 08:57:03;;;;;;;24.33;22.70;;;;;;;;;;5106200;28;20454;-86
2023/08/22 08:59:31;;;;;;;25.33;23.60;;;;;;;;;;5117767;28;20839;-88
2023/08/22 09:01:58;;;;;;;25.30;23.60;;;;;;;;;;5117441;28;20464;-87
2023/08/22 09:04:25;;;;;;;25.27;23.03;;;;;;;;;;5117098;28;20414;-87
2023/08/22 09:06:54;;;;;;;23.90;22.30;;;;;;;;;;5116553;28;20426;-82
2023/08/22 09:09:24;;;;;;;25.30;22.70;;;;;;;;;;5115826;28;20489;-92
2023/08/22 09:11:51;;;;;;;24.40;22.77;;;;;;;;;;5110850;28;20499;-86
2023/08/22 09:14:22;;;;;;;25.10;23.37;;;;;;;;;;5088098;28;20557;-86
2023/08/22 09:16:49;;;;;;;25.77;23.70;;;;;;;;;;5091827;28;20457;-85
2023/08/22 09:19:16;;;;;;;25.73;23.63;;;;;;;;;;5087817;28;20492;-86
2023/08/22 09:21:58;;;;;;;25.07;23.30;;;;;;;;;;5091940;28;20449;-86
2023/08/22 09:24:26;;;;;;;23.97;22.47;;;;;;;;;;5089241;28;20440;-87
2023/08/22 09:26:54;;;;;;;24.00;22.53;;;;;;;;;;5092959;28;20457;-85
2023/08/22 09:29:26;;;;;;;24.70;22.93;;;;;;;;;;5099499;28;20437;-87
2023/08/22 09:31:57;;;;;;;26.47;24.47;;;;;;;;;;5098359;28;20441;-86
2023/08/22 09:34:26;;;;;;;25.20;23.30;;;;;;;;;;5102063;28;20454;-85
2023/08/22 09:36:53;;;;;;;25.60;23.80;;;;;;;;;;5101840;28;20790;-85
2023/08/22 09:39:22;;;;;;;26.40;24.30;;;;;;;;;;5098287;28;20508;-82
2023/08/22 09:41:52;;;;;;;26.10;23.60;;;;;;;;;;5098982;28;20846;-86
2023/08/22 09:44:22;;;;;;;25.30;23.70;;;;;;;;;;5101702;28;20840;-87
2023/08/22 09:46:50;;;;;;;27.57;25.50;;;;;;;;;;5103348;28;20448;-85
2023/08/22 09:49:17;;;;;;;26.07;24.37;;;;;;;;;;5102020;28;20440;-83
2023/08/22 09:51:45;;;;;;;26.57;24.53;;;;;;;;;;5094432;28;20418;-82
2023/08/22 09:54:12;;;;;;;26.17;24.43;;;;;;;;;;5098883;28;20817;-81
2023/08/22 09:56:41;;;;;;;24.63;22.93;;;;;;;;;;5098809;28;20433;-83
2023/08/22 09:59:08;;;;;;;24.00;22.50;;;;;;;;;;5100909;28;20447;-86
2023/08/22 10:01:36;;;;;;;25.77;23.93;;;;;;;;;;5100523;28;20808;-85
2023/08/22 10:04:04;;;;;;;24.73;23.03;;;;;;;;;;5101362;28;20433;-84
2023/08/22 10:06:32;;;;;;;24.90;23.30;;;;;;;;;;5097419;28;20441;-88
2023/08/22 10:09:00;;;;;;;24.13;22.43;;;;;;;;;;5083065;28;20801;-84
2023/08/22 10:11:29;;;;;;;24.87;23.20;;;;;;;;;;5087850;28;20508;-84
2023/08/22 10:13:58;;;;;;;24.90;23.00;;;;;;;;;;5085973;28;20465;-87
2023/08/22 10:16:28;;;;;;;24.03;22.50;;;;;;;;;;5093075;28;20444;-77
2023/08/22 10:19:01;;;;;;;23.67;22.10;;;;;;;;;;5075911;28;20478;-78
2023/08/22 10:21:32;;;;;;;22.50;21.20;;;;;;;;;;5078202;28;20491;-79
2023/08/22 10:23:59;;;;;;;23.20;21.60;;;;;;;;;;5081214;28;20492;-79
2023/08/22 10:26:28;;;;;;;23.10;21.67;;;;;;;;;;5080085;28;20500;-78
2023/08/22 10:29:15;;;;;;;24.23;21.97;;;;;;;;;;5085664;28;20480;-78
2023/08/22 10:32:01;;;;;;;24.43;22.60;;;;;;;;;;5076743;28;20460;-78
2023/08/22 10:34:28;;;;;;;22.90;21.50;;;;;;;;;;5093921;28;20444;-79
2023/08/22 10:36:59;;;;;;;23.10;21.60;;;;;;;;;;5094503;28;20444;-78
2023/08/22 10:39:37;;;;;;;23.20;21.60;;;;;;;;;;5088758;28;20500;-78
2023/08/22 10:42:04;;;;;;;22.90;21.50;;;;;;;;;;5077447;28;20490;-83
2023/08/22 10:44:36;;;;;;;22.93;21.43;;;;;;;;;;5084818;28;20456;-85
2023/08/22 10:47:04;;;;;;;23.73;21.93;;;;;;;;;;5096848;28;20479;-85
2023/08/22 10:49:31;;;;;;;23.67;22.07;;;;;;;;;;5078769;28;20442;-82
2023/08/22 10:52:02;;;;;;;24.07;22.47;;;;;;;;;;5081599;28;20468;-86
2023/08/22 10:54:31;;;;;;;24.13;22.53;;;;;;;;;;5094249;28;20828;-85
2023/08/22 10:57:13;;;;;;;23.40;21.80;;;;;;;;;;5094907;28;20489;-84
2023/08/22 10:59:55;;;;;;;23.07;21.37;;;;;;;;;;5094104;28;20463;-84
2023/08/22 11:02:22;;;;;;;23.43;21.83;;;;;;;;;;5086619;28;20458;-89
2023/08/22 11:04:49;;;;;;;23.33;21.90;;;;;;;;;;5079969;28;20446;-89
2023/08/22 11:07:17;;;;;;;24.63;23.00;;;;;;;;;;5095499;28;20483;-89
2023/08/22 11:09:44;;;;;;;24.40;22.60;;;;;;;;;;5095761;28;20926;-89
2023/08/22 11:12:18;;;;;;;24.50;22.60;;;;;;;;;;5081305;28;20549;-83
2023/08/22 11:14:45;;;;;;;24.30;22.70;;;;;;;;;;5077711;28;20434;-83
2023/08/22 11:17:15;;;;;;;24.33;22.53;;;;;;;;;;5077447;28;20494;-82
2023/08/22 11:19:43;;;;;;;23.77;22.20;;;;;;;;;;5076579;28;20477;-81
2023/08/22 11:22:10;;;;;;;23.80;22.27;;;;;;;;;;5076797;28;20470;-83
2023/08/22 11:24:37;;;;;;;24.90;23.20;;;;;;;;;;5092429;28;20492;-89
2023/08/22 11:27:05;;;;;;;25.33;23.60;;;;;;;;;;5095463;28;20419;-88
2023/08/22 11:29:40;;;;;;;25.03;23.20;;;;;;;;;;5093306;28;20451;-89
2023/08/22 11:32:21;;;;;;;24.47;22.77;;;;;;;;;;5074562;28;20768;-89
2023/08/22 11:34:48;;;;;;;23.30;21.90;;;;;;;;;;5075044;28;20415;-89
2023/08/22 11:37:15;;;;;;;24.30;22.40;;;;;;;;;;5074836;28;20484;-89
2023/08/22 11:39:46;;;;;;;24.33;22.63;;;;;;;;;;5075030;28;20484;-89
2023/08/22 11:42:14;;;;;;;24.83;22.90;;;;;;;;;;5075247;28;20985;-91
2023/08/22 11:44:53;;;;;;;23.97;22.23;;;;;;;;;;5076030;28;20476;-89
2023/08/22 11:47:21;;;;;;;24.23;22.73;;;;;;;;;;5075354;28;20407;-89
2023/08/22 11:49:50;;;;;;;25.40;23.50;;;;;;;;;;5075764;28;20450;-89
2023/08/22 11:52:17;;;;;;;25.10;23.30;;;;;;;;;;5075538;28;20454;-89
2023/08/22 11:54:45;;;;;;;24.27;22.50;;;;;;;;;;5075838;28;20491;-89
2023/08/22 11:57:12;;;;;;;24.93;23.43;;;;;;;;;;5075380;28;20449;-89
2023/08/22 11:59:42;;;;;;;26.33;23.93;;;;;;;;;;5074844;28;20523;-88
2023/08/22 12:02:11;;;;;;;25.13;23.23;;;;;;;;;;5075142;28;20458;-90
2023/08/22 12:04:43;;;;;;;25.40;23.70;;;;;;;;;;5074460;28;20483;-89
2023/08/22 12:07:10;;;;;;;24.90;23.00;;;;;;;;;;5075312;28;20441;-89
2023/08/22 12:09:37;;;;;;;25.03;23.23;;;;;;;;;;5075151;28;20930;-90
2023/08/22 12:12:11;;;;;;;25.80;24.20;;;;;;;;;;5075031;28;20858;-87
2023/08/22 12:14:38;;;;;;;25.53;23.70;;;;;;;;;;5093540;27;20469;-89
2023/08/22 12:17:05;;;;;;;24.63;22.70;;;;;;;;;;5095331;28;20507;-89
2023/08/22 12:19:32;;;;;;;25.00;23.20;;;;;;;;;;5095301;28;20480;-89
2023/08/22 12:22:00;;;;;;;25.10;23.40;;;;;;;;;;5095192;28;20453;-90
2023/08/22 12:24:33;;;;;;;26.23;24.23;;;;;;;;;;5095351;28;20510;-90
2023/08/22 12:27:00;;;;;;;25.03;23.33;;;;;;;;;;5095503;28;21294;-92
2023/08/22 12:29:27;;;;;;;24.67;23.07;;;;;;;;;;5096328;28;20559;-88
2023/08/22 12:31:54;;;;;;;26.30;24.17;;;;;;;;;;5095025;28;20429;-87
2023/08/22 12:34:27;;;;;;;24.33;22.57;;;;;;;;;;5094552;28;20436;-88
2023/08/22 12:36:54;;;;;;;25.40;23.80;;;;;;;;;;5094173;28;20444;-89
2023/08/22 12:39:23;;;;;;;25.40;23.57;;;;;;;;;;5094382;28;20441;-88
2023/08/22 12:41:50;;;;;;;24.17;22.77;;;;;;;;;;5089670;28;20472;-88
2023/08/22 12:44:17;;;;;;;24.13;22.53;;;;;;;;;;5094439;28;20452;-88
2023/08/22 12:46:44;;;;;;;24.87;23.20;;;;;;;;;;5094711;28;20449;-88
2023/08/22 12:49:11;;;;;;;25.97;23.97;;;;;;;;;;5094005;28;20437;-88
2023/08/22 12:51:38;;;;;;;25.30;23.50;;;;;;;;;;5080841;28;20426;-87
2023/08/22 12:54:05;;;;;;;24.10;22.40;;;;;;;;;;5093638;28;20809;-88
2023/08/22 12:56:34;;;;;;;23.97;22.30;;;;;;;;;;5094190;28;20892;-88
2023/08/22 12:59:01;;;;;;;25.63;24.03;;;;;;;;;;5093883;28;20419;-88
2023/08/22 13:01:28;;;;;;;25.23;23.63;;;;;;;;;;5092979;28;20492;-87
2023/08/22 13:03:55;;;;;;;25.57;23.33;;;;;;;;;;5093637;28;20435;-87
2023/08/22 13:06:22;;;;;;;24.70;23.10;;;;;;;;;;5093803;28;20424;-89
2023/08/22 13:08:49;;;;;;;23.43;21.97;;;;;;;;;;5093842;28;20459;-88
2023/08/22 13:11:18;;;;;;;25.23;23.53;;;;;;;;;;5092886;28;20445;-88
2023/08/22 13:13:46;;;;;;;25.00;23.30;;;;;;;;;;5093695;28;20472;-88
2023/08/22 13:16:13;;;;;;;25.27;23.77;;;;;;;;;;5094187;28;20412;-88
2023/08/22 13:18:40;;;;;;;25.37;23.57;;;;;;;;;;5099201;28;20453;-88
2023/08/22 13:21:08;;;;;;;24.80;23.30;;;;;;;;;;5098630;28;20541;-88
2023/08/22 13:23:35;;;;;;;24.97;23.27;;;;;;;;;;5098193;28;20902;-88
2023/08/22 13:26:02;;;;;;;25.27;23.40;;;;;;;;;;5099061;28;20460;-88
2023/08/22 13:28:29;;;;;;;23.87;22.23;;;;;;;;;;5098119;28;20448;-88
2023/08/22 13:30:57;;;;;;;24.70;23.20;;;;;;;;;;5097750;28;20440;-87
2023/08/22 13:33:24;;;;;;;24.37;22.93;;;;;;;;;;5097899;28;20457;-87
2023/08/22 13:35:52;;;;;;;23.90;22.30;;;;;;;;;;5100604;28;20433;-84
2023/08/22 13:38:19;;;;;;;23.73;22.10;;;;;;;;;;5098947;28;20938;-82
2023/08/22 13:40:46;;;;;;;23.63;22.23;;;;;;;;;;5097749;28;20476;-83
2023/08/22 13:43:13;;;;;;;23.80;22.33;;;;;;;;;;5084698;28;20462;-80
2023/08/22 13:45:40;;;;;;;23.73;22.23;;;;;;;;;;5077353;28;20450;-78
2023/08/22 13:48:08;;;;;;;24.83;23.33;;;;;;;;;;5078373;28;20965;-82
2023/08/22 13:50:35;;;;;;;24.60;22.80;;;;;;;;;;5114614;28;20444;-87
2023/08/22 13:53:02;;;;;;;23.43;22.03;;;;;;;;;;5119258;28;21020;-86
2023/08/22 13:55:30;;;;;;;24.47;22.90;;;;;;;;;;5119649;28;20479;-83
2023/08/22 13:57:57;;;;;;;23.77;22.27;;;;;;;;;;5120972;28;20444;-85
2023/08/22 14:00:24;;;;;;;25.30;23.67;;;;;;;;;;5119994;28;20487;-84
2023/08/22 14:02:51;;;;;;;25.97;24.37;;;;;;;;;;5120125;28;20464;-85
2023/08/22 14:05:19;;;;;;;24.73;23.20;;;;;;;;;;5118191;28;20805;-81
2023/08/22 14:07:47;;;;;;;24.00;22.40;;;;;;;;;;5106096;28;20469;-89
2023/08/22 14:10:15;;;;;;;24.33;22.60;;;;;;;;;;5098017;28;20480;-83
2023/08/22 14:12:42;;;;;;;24.40;22.80;;;;;;;;;;5077989;28;20527;-89
2023/08/22 14:15:10;;;;;;;24.27;22.77;;;;;;;;;;5078172;28;20465;-88
2023/08/22 14:17:37;;;;;;;25.00;23.40;;;;;;;;;;5078193;28;20536;-89
2023/08/22 14:20:05;;;;;;;24.20;22.50;;;;;;;;;;5078388;28;20459;-85